sensor_id;sensor_type;location;lat;lon;timestamp;P1;durP1;ratioP1;P2;durP2;ratioP2
36259;SDS011;22296;50.824;5.644;2022-12-29T00:02:00;0.90;;;0.38;;
36259;SDS011;22296;50.824;5.644;2022-12-29T00:04:27;0.35;;;0.30;;
36259;SDS011;22296;50.824;5.644;2022-12-29T00:06:54;0.43;;;0.30;;
36259;SDS011;22296;50.824;5.644;2022-12-29T00:09:20;0.40;;;0.30;;
36259;SDS011;22296;50.824;5.644;2022-12-29T00:11:47;1.92;;;0.43;;
36259;SDS011;22296;50.824;5.644;2022-12-29T00:14:16;0.47;;;0.30;;
36259;SDS011;22296;50.824;5.644;2022-12-29T00:17:02;0.63;;;0.30;;
36259;SDS011;22296;50.824;5.644;2022-12-29T00:19:29;1.27;;;0.50;;
36259;SDS011;22296;50.824;5.644;2022-12-29T00:22:14;1.23;;;0.30;;
36259;SDS011;22296;50.824;5.644;2022-12-29T00:25:00;0.20;;;0.20;;
36259;SDS011;22296;50.824;5.644;2022-12-29T00:27:46;0.98;;;0.30;;
36259;SDS011;22296;50.824;5.644;2022-12-29T00:30:33;0.50;;;0.30;;
36259;SDS011;22296;50.824;5.644;2022-12-29T00:33:21;0.65;;;0.25;;
36259;SDS011;22296;50.824;5.644;2022-12-29T00:38:40;0.73;;;0.43;;
36259;SDS011;22296;50.824;5.644;2022-12-29T00:41:30;1.40;;;0.68;;
36259;SDS011;22296;50.824;5.644;2022-12-29T00:44:15;1.38;;;0.30;;
36259;SDS011;22296;50.824;5.644;2022-12-29T00:46:43;0.43;;;0.40;;
36259;SDS011;22296;50.824;5.644;2022-12-29T00:49:11;1.00;;;0.30;;
36259;SDS011;22296;50.824;5.644;2022-12-29T00:52:07;0.32;;;0.30;;
36259;SDS011;22296;50.824;5.644;2022-12-29T00:54:36;0.50;;;0.40;;
36259;SDS011;22296;50.824;5.644;2022-12-29T00:57:05;1.15;;;0.30;;
36259;SDS011;22296;50.824;5.644;2022-12-29T00:59:36;0.80;;;0.30;;
36259;SDS011;22296;50.824;5.644;2022-12-29T01:02:04;0.90;;;0.47;;
36259;SDS011;22296;50.824;5.644;2022-12-29T01:04:31;1.30;;;0.70;;
36259;SDS011;22296;50.824;5.644;2022-12-29T01:06:59;0.30;;;0.22;;
36259;SDS011;22296;50.824;5.644;2022-12-29T01:09:26;1.02;;;0.35;;
36259;SDS011;22296;50.824;5.644;2022-12-29T01:12:11;0.65;;;0.40;;
36259;SDS011;22296;50.824;5.644;2022-12-29T01:14:40;0.40;;;0.30;;
36259;SDS011;22296;50.824;5.644;2022-12-29T01:17:06;0.82;;;0.50;;
36259;SDS011;22296;50.824;5.644;2022-12-29T01:19:33;0.40;;;0.40;;
36259;SDS011;22296;50.824;5.644;2022-12-29T01:22:00;0.30;;;0.30;;
36259;SDS011;22296;50.824;5.644;2022-12-29T01:24:27;0.75;;;0.28;;
36259;SDS011;22296;50.824;5.644;2022-12-29T01:26:54;1.00;;;0.30;;
36259;SDS011;22296;50.824;5.644;2022-12-29T01:29:21;0.70;;;0.30;;
36259;SDS011;22296;50.824;5.644;2022-12-29T01:31:48;0.65;;;0.30;;
36259;SDS011;22296;50.824;5.644;2022-12-29T01:34:16;0.75;;;0.30;;
36259;SDS011;22296;50.824;5.644;2022-12-29T01:36:43;0.30;;;0.30;;
36259;SDS011;22296;50.824;5.644;2022-12-29T01:39:11;1.75;;;0.40;;
36259;SDS011;22296;50.824;5.644;2022-12-29T01:41:39;1.10;;;0.40;;
36259;SDS011;22296;50.824;5.644;2022-12-29T01:47:11;1.02;;;0.38;;
36259;SDS011;22296;50.824;5.644;2022-12-29T01:49:41;2.45;;;0.50;;
36259;SDS011;22296;50.824;5.644;2022-12-29T01:52:08;0.65;;;0.43;;
36259;SDS011;22296;50.824;5.644;2022-12-29T01:54:42;1.73;;;0.30;;
36259;SDS011;22296;50.824;5.644;2022-12-29T01:57:15;1.08;;;0.60;;
36259;SDS011;22296;50.824;5.644;2022-12-29T01:59:48;0.50;;;0.30;;
36259;SDS011;22296;50.824;5.644;2022-12-29T02:02:20;0.65;;;0.30;;
36259;SDS011;22296;50.824;5.644;2022-12-29T02:04:48;0.30;;;0.20;;
36259;SDS011;22296;50.824;5.644;2022-12-29T02:07:17;1.03;;;0.40;;
36259;SDS011;22296;50.824;5.644;2022-12-29T02:09:47;0.75;;;0.50;;
36259;SDS011;22296;50.824;5.644;2022-12-29T02:12:15;0.50;;;0.40;;
36259;SDS011;22296;50.824;5.644;2022-12-29T02:14:44;0.52;;;0.40;;
36259;SDS011;22296;50.824;5.644;2022-12-29T02:22:21;0.77;;;0.40;;
36259;SDS011;22296;50.824;5.644;2022-12-29T02:39:38;2.88;;;0.73;;
36259;SDS011;22296;50.824;5.644;2022-12-29T02:45:19;0.43;;;0.40;;
36259;SDS011;22296;50.824;5.644;2022-12-29T02:50:50;0.40;;;0.30;;
36259;SDS011;22296;50.824;5.644;2022-12-29T02:53:23;0.73;;;0.38;;
36259;SDS011;22296;50.824;5.644;2022-12-29T02:56:11;0.35;;;0.32;;
36259;SDS011;22296;50.824;5.644;2022-12-29T02:58:40;1.33;;;0.40;;
36259;SDS011;22296;50.824;5.644;2022-12-29T03:04:36;1.00;;;0.30;;
36259;SDS011;22296;50.824;5.644;2022-12-29T03:10:04;0.50;;;0.30;;
36259;SDS011;22296;50.824;5.644;2022-12-29T03:24:22;0.52;;;0.40;;
36259;SDS011;22296;50.824;5.644;2022-12-29T03:26:56;0.40;;;0.30;;
36259;SDS011;22296;50.824;5.644;2022-12-29T03:29:29;0.20;;;0.20;;
36259;SDS011;22296;50.824;5.644;2022-12-29T03:32:00;0.73;;;0.32;;
36259;SDS011;22296;50.824;5.644;2022-12-29T03:34:29;0.68;;;0.30;;
36259;SDS011;22296;50.824;5.644;2022-12-29T03:36:59;0.45;;;0.40;;
36259;SDS011;22296;50.824;5.644;2022-12-29T03:39:29;0.30;;;0.20;;
36259;SDS011;22296;50.824;5.644;2022-12-29T03:41:58;0.47;;;0.20;;
36259;SDS011;22296;50.824;5.644;2022-12-29T03:44:38;0.73;;;0.30;;
36259;SDS011;22296;50.824;5.644;2022-12-29T03:47:12;0.90;;;0.40;;
36259;SDS011;22296;50.824;5.644;2022-12-29T03:49:43;0.40;;;0.20;;
36259;SDS011;22296;50.824;5.644;2022-12-29T03:52:11;0.88;;;0.50;;
36259;SDS011;22296;50.824;5.644;2022-12-29T03:54:41;0.45;;;0.30;;
36259;SDS011;22296;50.824;5.644;2022-12-29T03:57:09;0.40;;;0.30;;
36259;SDS011;22296;50.824;5.644;2022-12-29T03:59:55;0.88;;;0.30;;
36259;SDS011;22296;50.824;5.644;2022-12-29T04:02:22;0.40;;;0.30;;
36259;SDS011;22296;50.824;5.644;2022-12-29T04:04:51;0.65;;;0.40;;
36259;SDS011;22296;50.824;5.644;2022-12-29T04:07:18;0.88;;;0.40;;
36259;SDS011;22296;50.824;5.644;2022-12-29T04:09:45;0.50;;;0.30;;
36259;SDS011;22296;50.824;5.644;2022-12-29T04:12:17;2.78;;;0.38;;
36259;SDS011;22296;50.824;5.644;2022-12-29T04:14:44;0.32;;;0.22;;
36259;SDS011;22296;50.824;5.644;2022-12-29T04:17:11;1.27;;;0.60;;
36259;SDS011;22296;50.824;5.644;2022-12-29T04:19:40;0.90;;;0.30;;
36259;SDS011;22296;50.824;5.644;2022-12-29T04:22:07;1.17;;;0.40;;
36259;SDS011;22296;50.824;5.644;2022-12-29T04:24:34;0.75;;;0.40;;
36259;SDS011;22296;50.824;5.644;2022-12-29T04:27:01;0.40;;;0.30;;
36259;SDS011;22296;50.824;5.644;2022-12-29T04:29:39;1.65;;;0.40;;
36259;SDS011;22296;50.824;5.644;2022-12-29T04:32:06;0.93;;;0.38;;
36259;SDS011;22296;50.824;5.644;2022-12-29T04:34:37;0.50;;;0.30;;
36259;SDS011;22296;50.824;5.644;2022-12-29T04:37:05;0.85;;;0.40;;
36259;SDS011;22296;50.824;5.644;2022-12-29T04:39:31;1.25;;;0.60;;
36259;SDS011;22296;50.824;5.644;2022-12-29T04:42:01;0.30;;;0.30;;
36259;SDS011;22296;50.824;5.644;2022-12-29T04:44:28;0.40;;;0.30;;
36259;SDS011;22296;50.824;5.644;2022-12-29T04:46:55;0.60;;;0.40;;
36259;SDS011;22296;50.824;5.644;2022-12-29T04:49:48;2.10;;;0.40;;
36259;SDS011;22296;50.824;5.644;2022-12-29T04:52:33;1.23;;;0.20;;
36259;SDS011;22296;50.824;5.644;2022-12-29T04:55:01;1.23;;;0.45;;
36259;SDS011;22296;50.824;5.644;2022-12-29T04:57:29;1.75;;;0.43;;
36259;SDS011;22296;50.824;5.644;2022-12-29T05:02:25;0.82;;;0.52;;
36259;SDS011;22296;50.824;5.644;2022-12-29T05:04:54;1.27;;;0.32;;
36259;SDS011;22296;50.824;5.644;2022-12-29T05:07:22;0.35;;;0.20;;
36259;SDS011;22296;50.824;5.644;2022-12-29T05:09:50;2.40;;;0.40;;
36259;SDS011;22296;50.824;5.644;2022-12-29T05:12:17;0.75;;;0.30;;
36259;SDS011;22296;50.824;5.644;2022-12-29T05:14:52;1.30;;;0.40;;
36259;SDS011;22296;50.824;5.644;2022-12-29T05:17:19;0.50;;;0.40;;
36259;SDS011;22296;50.824;5.644;2022-12-29T05:19:46;0.98;;;0.30;;
36259;SDS011;22296;50.824;5.644;2022-12-29T05:22:12;1.85;;;0.47;;
36259;SDS011;22296;50.824;5.644;2022-12-29T05:24:40;1.92;;;1.00;;
36259;SDS011;22296;50.824;5.644;2022-12-29T05:27:07;0.70;;;0.22;;
36259;SDS011;22296;50.824;5.644;2022-12-29T05:29:46;0.22;;;0.22;;
36259;SDS011;22296;50.824;5.644;2022-12-29T05:32:13;0.55;;;0.30;;
36259;SDS011;22296;50.824;5.644;2022-12-29T05:34:41;0.65;;;0.30;;
36259;SDS011;22296;50.824;5.644;2022-12-29T05:37:08;1.13;;;0.50;;
36259;SDS011;22296;50.824;5.644;2022-12-29T05:39:36;0.55;;;0.30;;
36259;SDS011;22296;50.824;5.644;2022-12-29T05:42:04;0.32;;;0.32;;
36259;SDS011;22296;50.824;5.644;2022-12-29T05:44:43;1.27;;;0.30;;
36259;SDS011;22296;50.824;5.644;2022-12-29T05:47:23;0.70;;;0.40;;
36259;SDS011;22296;50.824;5.644;2022-12-29T05:50:10;0.95;;;0.40;;
36259;SDS011;22296;50.824;5.644;2022-12-29T05:53:07;1.17;;;0.30;;
36259;SDS011;22296;50.824;5.644;2022-12-29T05:55:35;1.35;;;0.60;;
36259;SDS011;22296;50.824;5.644;2022-12-29T05:58:03;1.55;;;0.50;;
36259;SDS011;22296;50.824;5.644;2022-12-29T06:00:30;1.63;;;0.47;;
36259;SDS011;22296;50.824;5.644;2022-12-29T06:02:58;1.38;;;0.43;;
36259;SDS011;22296;50.824;5.644;2022-12-29T06:05:26;0.75;;;0.60;;
36259;SDS011;22296;50.824;5.644;2022-12-29T06:07:53;1.40;;;0.60;;
36259;SDS011;22296;50.824;5.644;2022-12-29T06:10:21;1.33;;;0.60;;
36259;SDS011;22296;50.824;5.644;2022-12-29T06:13:14;0.68;;;0.60;;
36259;SDS011;22296;50.824;5.644;2022-12-29T06:15:43;1.00;;;0.60;;
36259;SDS011;22296;50.824;5.644;2022-12-29T06:18:10;0.88;;;0.60;;
36259;SDS011;22296;50.824;5.644;2022-12-29T06:20:45;1.02;;;0.60;;
36259;SDS011;22296;50.824;5.644;2022-12-29T06:23:12;1.33;;;0.60;;
36259;SDS011;22296;50.824;5.644;2022-12-29T06:25:39;1.80;;;0.70;;
36259;SDS011;22296;50.824;5.644;2022-12-29T06:28:06;2.50;;;0.80;;
36259;SDS011;22296;50.824;5.644;2022-12-29T06:30:35;2.40;;;1.00;;
36259;SDS011;22296;50.824;5.644;2022-12-29T06:33:02;1.23;;;0.98;;
36259;SDS011;22296;50.824;5.644;2022-12-29T06:35:29;1.42;;;1.00;;
36259;SDS011;22296;50.824;5.644;2022-12-29T06:37:55;1.40;;;0.80;;
36259;SDS011;22296;50.824;5.644;2022-12-29T06:40:22;1.83;;;0.90;;
36259;SDS011;22296;50.824;5.644;2022-12-29T06:43:07;2.45;;;0.80;;
36259;SDS011;22296;50.824;5.644;2022-12-29T06:45:57;0.93;;;0.80;;
36259;SDS011;22296;50.824;5.644;2022-12-29T06:48:25;1.95;;;1.42;;
36259;SDS011;22296;50.824;5.644;2022-12-29T06:50:52;1.98;;;0.70;;
36259;SDS011;22296;50.824;5.644;2022-12-29T06:53:19;2.38;;;1.27;;
36259;SDS011;22296;50.824;5.644;2022-12-29T06:55:46;1.30;;;0.90;;
36259;SDS011;22296;50.824;5.644;2022-12-29T06:58:12;1.73;;;0.60;;
36259;SDS011;22296;50.824;5.644;2022-12-29T07:00:39;2.15;;;0.90;;
36259;SDS011;22296;50.824;5.644;2022-12-29T07:03:07;1.20;;;0.70;;
36259;SDS011;22296;50.824;5.644;2022-12-29T07:05:34;1.70;;;0.98;;
36259;SDS011;22296;50.824;5.644;2022-12-29T07:08:01;3.88;;;0.80;;
36259;SDS011;22296;50.824;5.644;2022-12-29T07:10:27;2.20;;;0.80;;
36259;SDS011;22296;50.824;5.644;2022-12-29T07:12:54;1.65;;;0.80;;
36259;SDS011;22296;50.824;5.644;2022-12-29T07:15:21;1.50;;;0.70;;
36259;SDS011;22296;50.824;5.644;2022-12-29T07:17:48;1.13;;;0.60;;
36259;SDS011;22296;50.824;5.644;2022-12-29T07:20:16;3.03;;;1.10;;
36259;SDS011;22296;50.824;5.644;2022-12-29T07:22:51;1.13;;;0.80;;
36259;SDS011;22296;50.824;5.644;2022-12-29T07:25:18;1.25;;;0.73;;
36259;SDS011;22296;50.824;5.644;2022-12-29T07:27:45;2.05;;;0.95;;
36259;SDS011;22296;50.824;5.644;2022-12-29T07:30:12;2.13;;;1.00;;
36259;SDS011;22296;50.824;5.644;2022-12-29T07:32:39;2.10;;;1.25;;
36259;SDS011;22296;50.824;5.644;2022-12-29T07:35:05;5.43;;;1.15;;
36259;SDS011;22296;50.824;5.644;2022-12-29T07:37:33;2.58;;;0.70;;
36259;SDS011;22296;50.824;5.644;2022-12-29T07:40:01;2.10;;;0.93;;
36259;SDS011;22296;50.824;5.644;2022-12-29T07:42:30;2.90;;;0.80;;
36259;SDS011;22296;50.824;5.644;2022-12-29T07:44:58;2.17;;;0.70;;
36259;SDS011;22296;50.824;5.644;2022-12-29T07:47:32;1.50;;;0.82;;
36259;SDS011;22296;50.824;5.644;2022-12-29T07:49:59;1.85;;;0.65;;
36259;SDS011;22296;50.824;5.644;2022-12-29T07:52:25;1.70;;;0.68;;
36259;SDS011;22296;50.824;5.644;2022-12-29T07:54:52;1.10;;;0.80;;
36259;SDS011;22296;50.824;5.644;2022-12-29T07:57:19;2.67;;;0.70;;
36259;SDS011;22296;50.824;5.644;2022-12-29T07:59:51;3.25;;;0.60;;
36259;SDS011;22296;50.824;5.644;2022-12-29T08:02:18;1.38;;;0.65;;
36259;SDS011;22296;50.824;5.644;2022-12-29T08:04:45;2.15;;;0.75;;
36259;SDS011;22296;50.824;5.644;2022-12-29T08:07:12;2.30;;;0.82;;
36259;SDS011;22296;50.824;5.644;2022-12-29T08:09:38;1.75;;;0.52;;
36259;SDS011;22296;50.824;5.644;2022-12-29T08:12:05;1.48;;;0.68;;
36259;SDS011;22296;50.824;5.644;2022-12-29T08:14:32;2.05;;;0.82;;
36259;SDS011;22296;50.824;5.644;2022-12-29T08:16:59;1.27;;;0.75;;
36259;SDS011;22296;50.824;5.644;2022-12-29T08:19:26;1.35;;;0.80;;
36259;SDS011;22296;50.824;5.644;2022-12-29T08:21:53;1.27;;;0.60;;
36259;SDS011;22296;50.824;5.644;2022-12-29T08:24:20;2.33;;;0.80;;
36259;SDS011;22296;50.824;5.644;2022-12-29T08:26:46;0.85;;;0.52;;
36259;SDS011;22296;50.824;5.644;2022-12-29T08:29:13;2.05;;;0.63;;
36259;SDS011;22296;50.824;5.644;2022-12-29T08:31:40;1.52;;;0.70;;
36259;SDS011;22296;50.824;5.644;2022-12-29T08:34:06;1.42;;;0.70;;
36259;SDS011;22296;50.824;5.644;2022-12-29T08:36:33;2.45;;;0.80;;
36259;SDS011;22296;50.824;5.644;2022-12-29T08:39:00;1.77;;;0.80;;
36259;SDS011;22296;50.824;5.644;2022-12-29T08:41:27;1.48;;;0.63;;
36259;SDS011;22296;50.824;5.644;2022-12-29T08:43:53;2.50;;;0.85;;
36259;SDS011;22296;50.824;5.644;2022-12-29T08:46:20;1.92;;;0.80;;
36259;SDS011;22296;50.824;5.644;2022-12-29T08:48:47;1.65;;;0.77;;
36259;SDS011;22296;50.824;5.644;2022-12-29T08:51:14;2.20;;;1.15;;
36259;SDS011;22296;50.824;5.644;2022-12-29T08:53:46;4.15;;;1.13;;
36259;SDS011;22296;50.824;5.644;2022-12-29T08:56:13;1.42;;;1.15;;
36259;SDS011;22296;50.824;5.644;2022-12-29T08:58:47;1.50;;;0.80;;
36259;SDS011;22296;50.824;5.644;2022-12-29T09:01:13;2.25;;;1.20;;
36259;SDS011;22296;50.824;5.644;2022-12-29T09:03:40;1.67;;;0.70;;
36259;SDS011;22296;50.824;5.644;2022-12-29T09:06:27;2.78;;;0.90;;
36259;SDS011;22296;50.824;5.644;2022-12-29T09:08:54;1.40;;;0.90;;
36259;SDS011;22296;50.824;5.644;2022-12-29T09:11:23;1.80;;;0.95;;
36259;SDS011;22296;50.824;5.644;2022-12-29T09:13:51;1.10;;;0.70;;
36259;SDS011;22296;50.824;5.644;2022-12-29T09:16:19;1.58;;;0.80;;
36259;SDS011;22296;50.824;5.644;2022-12-29T09:18:47;2.08;;;1.02;;
36259;SDS011;22296;50.824;5.644;2022-12-29T09:21:15;3.15;;;1.17;;
36259;SDS011;22296;50.824;5.644;2022-12-29T09:23:41;2.92;;;1.10;;
36259;SDS011;22296;50.824;5.644;2022-12-29T09:26:08;2.22;;;1.30;;
36259;SDS011;22296;50.824;5.644;2022-12-29T09:28:35;3.03;;;1.45;;
36259;SDS011;22296;50.824;5.644;2022-12-29T09:31:03;4.07;;;1.63;;
36259;SDS011;22296;50.824;5.644;2022-12-29T09:33:29;3.53;;;1.60;;
36259;SDS011;22296;50.824;5.644;2022-12-29T09:35:59;2.35;;;1.45;;
36259;SDS011;22296;50.824;5.644;2022-12-29T09:38:26;4.72;;;1.50;;
36259;SDS011;22296;50.824;5.644;2022-12-29T09:40:56;3.33;;;1.73;;
36259;SDS011;22296;50.824;5.644;2022-12-29T09:46:06;4.03;;;1.70;;
36259;SDS011;22296;50.824;5.644;2022-12-29T09:48:44;2.85;;;1.65;;
36259;SDS011;22296;50.824;5.644;2022-12-29T09:51:21;3.40;;;1.70;;
36259;SDS011;22296;50.824;5.644;2022-12-29T09:54:00;2.75;;;1.48;;
36259;SDS011;22296;50.824;5.644;2022-12-29T09:56:40;4.15;;;1.88;;
36259;SDS011;22296;50.824;5.644;2022-12-29T09:59:09;3.53;;;1.92;;
36259;SDS011;22296;50.824;5.644;2022-12-29T10:01:46;3.17;;;1.73;;
36259;SDS011;22296;50.824;5.644;2022-12-29T10:04:25;3.22;;;1.50;;
36259;SDS011;22296;50.824;5.644;2022-12-29T10:06:56;3.25;;;1.52;;
36259;SDS011;22296;50.824;5.644;2022-12-29T10:12:22;2.75;;;1.55;;
36259;SDS011;22296;50.824;5.644;2022-12-29T10:15:02;3.28;;;1.60;;
36259;SDS011;22296;50.824;5.644;2022-12-29T10:17:40;2.95;;;1.55;;
36259;SDS011;22296;50.824;5.644;2022-12-29T10:20:19;3.72;;;1.52;;
36259;SDS011;22296;50.824;5.644;2022-12-29T10:26:41;2.63;;;1.35;;
36259;SDS011;22296;50.824;5.644;2022-12-29T10:29:05;3.03;;;1.50;;
36259;SDS011;22296;50.824;5.644;2022-12-29T10:32:00;2.85;;;1.30;;
36259;SDS011;22296;50.824;5.644;2022-12-29T10:34:41;3.88;;;1.48;;
36259;SDS011;22296;50.824;5.644;2022-12-29T10:40:02;3.53;;;1.58;;
36259;SDS011;22296;50.824;5.644;2022-12-29T10:42:41;3.90;;;1.80;;
36259;SDS011;22296;50.824;5.644;2022-12-29T10:45:12;3.58;;;1.45;;
36259;SDS011;22296;50.824;5.644;2022-12-29T10:47:47;2.35;;;1.17;;
36259;SDS011;22296;50.824;5.644;2022-12-29T10:50:39;4.30;;;1.23;;
36259;SDS011;22296;50.824;5.644;2022-12-29T10:53:11;2.45;;;1.40;;
36259;SDS011;22296;50.824;5.644;2022-12-29T10:55:45;2.40;;;1.40;;
36259;SDS011;22296;50.824;5.644;2022-12-29T10:58:13;3.60;;;1.52;;
36259;SDS011;22296;50.824;5.644;2022-12-29T11:00:41;2.78;;;1.38;;
36259;SDS011;22296;50.824;5.644;2022-12-29T11:08:57;4.82;;;1.20;;
36259;SDS011;22296;50.824;5.644;2022-12-29T11:11:32;5.22;;;1.35;;
36259;SDS011;22296;50.824;5.644;2022-12-29T11:14:10;4.22;;;1.25;;
36259;SDS011;22296;50.824;5.644;2022-12-29T11:17:01;2.38;;;1.42;;
36259;SDS011;22296;50.824;5.644;2022-12-29T11:19:31;2.38;;;1.20;;
36259;SDS011;22296;50.824;5.644;2022-12-29T11:24:50;2.30;;;1.30;;
36259;SDS011;22296;50.824;5.644;2022-12-29T11:29:50;4.55;;;1.48;;
36259;SDS011;22296;50.824;5.644;2022-12-29T11:32:25;2.70;;;1.40;;
36259;SDS011;22296;50.824;5.644;2022-12-29T11:34:55;4.78;;;1.10;;
36259;SDS011;22296;50.824;5.644;2022-12-29T11:37:32;3.40;;;1.15;;
36259;SDS011;22296;50.824;5.644;2022-12-29T11:40:18;1.73;;;0.88;;
36259;SDS011;22296;50.824;5.644;2022-12-29T11:43:02;2.97;;;1.15;;
36259;SDS011;22296;50.824;5.644;2022-12-29T11:45:32;3.42;;;0.95;;
36259;SDS011;22296;50.824;5.644;2022-12-29T11:48:08;2.28;;;1.10;;
36259;SDS011;22296;50.824;5.644;2022-12-29T11:50:42;2.15;;;1.08;;
36259;SDS011;22296;50.824;5.644;2022-12-29T11:55:51;2.50;;;1.00;;
36259;SDS011;22296;50.824;5.644;2022-12-29T11:58:29;2.10;;;1.00;;
36259;SDS011;22296;50.824;5.644;2022-12-29T12:01:00;2.92;;;1.10;;
36259;SDS011;22296;50.824;5.644;2022-12-29T12:03:31;3.17;;;0.98;;
36259;SDS011;22296;50.824;5.644;2022-12-29T12:06:03;1.40;;;0.82;;
36259;SDS011;22296;50.824;5.644;2022-12-29T12:08:36;1.55;;;1.00;;
36259;SDS011;22296;50.824;5.644;2022-12-29T12:11:12;2.30;;;0.98;;
36259;SDS011;22296;50.824;5.644;2022-12-29T12:16:51;4.18;;;1.05;;
36259;SDS011;22296;50.824;5.644;2022-12-29T12:19:32;2.53;;;1.10;;
36259;SDS011;22296;50.824;5.644;2022-12-29T12:22:08;3.22;;;1.20;;
36259;SDS011;22296;50.824;5.644;2022-12-29T12:24:47;2.17;;;0.88;;
36259;SDS011;22296;50.824;5.644;2022-12-29T12:27:20;2.22;;;0.90;;
36259;SDS011;22296;50.824;5.644;2022-12-29T12:33:01;3.58;;;0.80;;
36259;SDS011;22296;50.824;5.644;2022-12-29T12:41:13;1.60;;;0.80;;
36259;SDS011;22296;50.824;5.644;2022-12-29T13:00:14;4.05;;;0.95;;
36259;SDS011;22296;50.824;5.644;2022-12-29T13:05:53;1.05;;;0.70;;
36259;SDS011;22296;50.824;5.644;2022-12-29T13:08:34;3.25;;;1.27;;
36259;SDS011;22296;50.824;5.644;2022-12-29T13:28:51;2.40;;;1.00;;
36259;SDS011;22296;50.824;5.644;2022-12-29T13:31:33;2.17;;;1.13;;
36259;SDS011;22296;50.824;5.644;2022-12-29T13:41:50;3.25;;;1.05;;
36259;SDS011;22296;50.824;5.644;2022-12-29T13:44:42;4.30;;;1.02;;
36259;SDS011;22296;50.824;5.644;2022-12-29T13:49:51;3.28;;;0.80;;
36259;SDS011;22296;50.824;5.644;2022-12-29T13:52:34;2.15;;;0.95;;
36259;SDS011;22296;50.824;5.644;2022-12-29T13:57:53;2.20;;;1.00;;
36259;SDS011;22296;50.824;5.644;2022-12-29T14:01:08;2.53;;;0.60;;
36259;SDS011;22296;50.824;5.644;2022-12-29T14:06:16;0.80;;;0.53;;
36259;SDS011;22296;50.824;5.644;2022-12-29T14:08:45;2.60;;;0.70;;
36259;SDS011;22296;50.824;5.644;2022-12-29T14:11:14;2.77;;;1.03;;
36259;SDS011;22296;50.824;5.644;2022-12-29T14:13:43;3.45;;;1.55;;
36259;SDS011;22296;50.824;5.644;2022-12-29T14:16:26;1.88;;;0.70;;
36259;SDS011;22296;50.824;5.644;2022-12-29T14:19:05;1.95;;;0.93;;
36259;SDS011;22296;50.824;5.644;2022-12-29T14:21:53;1.35;;;0.70;;
36259;SDS011;22296;50.824;5.644;2022-12-29T14:27:09;2.05;;;1.00;;
36259;SDS011;22296;50.824;5.644;2022-12-29T14:29:50;1.63;;;0.55;;
36259;SDS011;22296;50.824;5.644;2022-12-29T14:34:48;1.23;;;0.77;;
36259;SDS011;22296;50.824;5.644;2022-12-29T14:40:02;1.60;;;0.50;;
36259;SDS011;22296;50.824;5.644;2022-12-29T14:42:33;2.50;;;0.80;;
36259;SDS011;22296;50.824;5.644;2022-12-29T14:45:05;2.25;;;0.70;;
36259;SDS011;22296;50.824;5.644;2022-12-29T14:47:52;2.35;;;0.82;;
36259;SDS011;22296;50.824;5.644;2022-12-29T14:52:54;1.85;;;0.90;;
36259;SDS011;22296;50.824;5.644;2022-12-29T14:58:20;1.67;;;0.80;;
36259;SDS011;22296;50.824;5.644;2022-12-29T15:00:52;2.88;;;0.80;;
36259;SDS011;22296;50.824;5.644;2022-12-29T15:03:24;2.25;;;1.00;;
36259;SDS011;22296;50.824;5.644;2022-12-29T15:06:12;1.92;;;0.82;;
36259;SDS011;22296;50.824;5.644;2022-12-29T15:08:54;1.33;;;0.75;;
36259;SDS011;22296;50.824;5.644;2022-12-29T15:16:59;2.20;;;0.93;;
36259;SDS011;22296;50.824;5.644;2022-12-29T15:19:27;1.55;;;0.57;;
36259;SDS011;22296;50.824;5.644;2022-12-29T15:21:54;2.88;;;0.70;;
36259;SDS011;22296;50.824;5.644;2022-12-29T15:24:23;2.90;;;0.90;;
36259;SDS011;22296;50.824;5.644;2022-12-29T15:26:51;1.77;;;0.82;;
36259;SDS011;22296;50.824;5.644;2022-12-29T15:32:10;2.20;;;0.85;;
36259;SDS011;22296;50.824;5.644;2022-12-29T15:34:48;3.00;;;0.68;;
36259;SDS011;22296;50.824;5.644;2022-12-29T15:37:22;2.40;;;0.75;;
36259;SDS011;22296;50.824;5.644;2022-12-29T15:39:49;2.28;;;0.75;;
36259;SDS011;22296;50.824;5.644;2022-12-29T15:45:05;2.37;;;0.70;;
36259;SDS011;22296;50.824;5.644;2022-12-29T15:47:37;1.85;;;0.77;;
36259;SDS011;22296;50.824;5.644;2022-12-29T15:50:06;2.85;;;1.02;;
36259;SDS011;22296;50.824;5.644;2022-12-29T15:52:49;2.90;;;1.20;;
36259;SDS011;22296;50.824;5.644;2022-12-29T15:55:32;2.55;;;0.75;;
36259;SDS011;22296;50.824;5.644;2022-12-29T15:58:00;2.03;;;1.08;;
36259;SDS011;22296;50.824;5.644;2022-12-29T16:03:01;2.10;;;0.50;;
36259;SDS011;22296;50.824;5.644;2022-12-29T16:05:31;2.45;;;0.80;;
36259;SDS011;22296;50.824;5.644;2022-12-29T16:08:00;2.47;;;0.80;;
36259;SDS011;22296;50.824;5.644;2022-12-29T16:10:37;1.95;;;0.80;;
36259;SDS011;22296;50.824;5.644;2022-12-29T16:16:09;2.28;;;0.90;;
36259;SDS011;22296;50.824;5.644;2022-12-29T16:18:43;2.88;;;1.00;;
36259;SDS011;22296;50.824;5.644;2022-12-29T16:21:18;2.28;;;0.85;;
36259;SDS011;22296;50.824;5.644;2022-12-29T16:23:50;2.03;;;0.80;;
36259;SDS011;22296;50.824;5.644;2022-12-29T16:26:20;3.78;;;1.10;;
36259;SDS011;22296;50.824;5.644;2022-12-29T16:28:56;2.33;;;0.75;;
36259;SDS011;22296;50.824;5.644;2022-12-29T16:34:19;2.42;;;0.77;;
36259;SDS011;22296;50.824;5.644;2022-12-29T16:36:56;2.63;;;0.90;;
36259;SDS011;22296;50.824;5.644;2022-12-29T16:39:33;1.38;;;0.70;;
36259;SDS011;22296;50.824;5.644;2022-12-29T16:45:09;3.08;;;1.00;;
36259;SDS011;22296;50.824;5.644;2022-12-29T16:47:46;2.83;;;0.90;;
36259;SDS011;22296;50.824;5.644;2022-12-29T16:50:36;1.77;;;0.90;;
36259;SDS011;22296;50.824;5.644;2022-12-29T16:53:05;3.20;;;1.13;;
36259;SDS011;22296;50.824;5.644;2022-12-29T16:55:50;1.92;;;0.68;;
36259;SDS011;22296;50.824;5.644;2022-12-29T16:58:25;2.55;;;1.00;;
36259;SDS011;22296;50.824;5.644;2022-12-29T17:00:55;2.17;;;0.82;;
36259;SDS011;22296;50.824;5.644;2022-12-29T17:03:25;1.45;;;0.70;;
36259;SDS011;22296;50.824;5.644;2022-12-29T17:05:57;2.65;;;0.90;;
36259;SDS011;22296;50.824;5.644;2022-12-29T17:08:24;3.50;;;1.10;;
36259;SDS011;22296;50.824;5.644;2022-12-29T17:10:51;2.70;;;1.30;;
36259;SDS011;22296;50.824;5.644;2022-12-29T17:13:39;2.05;;;0.80;;
36259;SDS011;22296;50.824;5.644;2022-12-29T17:16:07;3.30;;;0.98;;
36259;SDS011;22296;50.824;5.644;2022-12-29T17:18:37;4.25;;;1.02;;
36259;SDS011;22296;50.824;5.644;2022-12-29T17:21:04;2.42;;;0.80;;
36259;SDS011;22296;50.824;5.644;2022-12-29T17:23:31;1.60;;;0.75;;
36259;SDS011;22296;50.824;5.644;2022-12-29T17:25:59;3.53;;;0.90;;
36259;SDS011;22296;50.824;5.644;2022-12-29T17:28:29;2.40;;;0.85;;
36259;SDS011;22296;50.824;5.644;2022-12-29T17:30:59;2.58;;;1.20;;
36259;SDS011;22296;50.824;5.644;2022-12-29T17:33:29;2.05;;;0.70;;
36259;SDS011;22296;50.824;5.644;2022-12-29T17:36:02;2.05;;;0.90;;
36259;SDS011;22296;50.824;5.644;2022-12-29T17:38:30;1.90;;;0.82;;
36259;SDS011;22296;50.824;5.644;2022-12-29T17:41:00;6.03;;;1.00;;
36259;SDS011;22296;50.824;5.644;2022-12-29T17:43:27;2.03;;;1.15;;
36259;SDS011;22296;50.824;5.644;2022-12-29T17:46:01;2.03;;;0.80;;
36259;SDS011;22296;50.824;5.644;2022-12-29T17:48:31;2.30;;;1.08;;
36259;SDS011;22296;50.824;5.644;2022-12-29T17:50:58;1.85;;;0.65;;
36259;SDS011;22296;50.824;5.644;2022-12-29T17:53:27;1.50;;;0.57;;
36259;SDS011;22296;50.824;5.644;2022-12-29T17:55:54;1.90;;;0.97;;
36259;SDS011;22296;50.824;5.644;2022-12-29T18:00:59;3.10;;;0.68;;
36259;SDS011;22296;50.824;5.644;2022-12-29T18:03:31;3.05;;;0.77;;
36259;SDS011;22296;50.824;5.644;2022-12-29T18:06:00;2.55;;;1.02;;
36259;SDS011;22296;50.824;5.644;2022-12-29T18:08:28;2.75;;;0.77;;
36259;SDS011;22296;50.824;5.644;2022-12-29T18:10:55;1.98;;;0.80;;
36259;SDS011;22296;50.824;5.644;2022-12-29T18:13:23;1.65;;;0.80;;
36259;SDS011;22296;50.824;5.644;2022-12-29T18:16:09;2.00;;;0.60;;
36259;SDS011;22296;50.824;5.644;2022-12-29T18:18:37;1.30;;;0.90;;